sensor_id;sensor_type;location;lat;lon;timestamp;P1;durP1;ratioP1;P2;durP2;ratioP2
10383;SDS011;5238;43.508;4.980;2022-09-17T00:00:41;2.33;;;2.08;;
10383;SDS011;5238;43.508;4.980;2022-09-17T00:03:08;3.05;;;1.83;;
10383;SDS011;5238;43.508;4.980;2022-09-17T00:05:36;2.90;;;1.98;;
10383;SDS011;5238;43.508;4.980;2022-09-17T00:08:06;4.82;;;1.95;;
10383;SDS011;5238;43.508;4.980;2022-09-17T00:10:36;2.08;;;1.90;;
10383;SDS011;5238;43.508;4.980;2022-09-17T00:13:05;3.22;;;2.05;;
10383;SDS011;5238;43.508;4.980;2022-09-17T00:15:32;2.92;;;1.90;;
10383;SDS011;5238;43.508;4.980;2022-09-17T00:18:04;2.70;;;2.03;;
10383;SDS011;5238;43.508;4.980;2022-09-17T00:20:36;4.43;;;1.90;;
10383;SDS011;5238;43.508;4.980;2022-09-17T00:23:05;3.03;;;2.05;;
10383;SDS011;5238;43.508;4.980;2022-09-17T00:25:32;2.38;;;2.17;;
10383;SDS011;5238;43.508;4.980;2022-09-17T00:28:00;3.85;;;2.00;;
10383;SDS011;5238;43.508;4.980;2022-09-17T00:30:27;2.60;;;1.88;;
10383;SDS011;5238;43.508;4.980;2022-09-17T00:32:54;2.33;;;2.10;;
10383;SDS011;5238;43.508;4.980;2022-09-17T00:35:22;4.22;;;2.17;;
10383;SDS011;5238;43.508;4.980;2022-09-17T00:37:58;3.22;;;1.70;;
10383;SDS011;5238;43.508;4.980;2022-09-17T00:40:31;2.40;;;2.20;;
10383;SDS011;5238;43.508;4.980;2022-09-17T00:42:58;2.90;;;2.00;;
10383;SDS011;5238;43.508;4.980;2022-09-17T00:45:26;4.65;;;2.28;;
10383;SDS011;5238;43.508;4.980;2022-09-17T00:47:57;3.55;;;2.10;;
10383;SDS011;5238;43.508;4.980;2022-09-17T00:50:26;2.55;;;2.10;;
10383;SDS011;5238;43.508;4.980;2022-09-17T00:53:02;4.47;;;2.25;;
10383;SDS011;5238;43.508;4.980;2022-09-17T00:55:36;2.40;;;2.17;;
10383;SDS011;5238;43.508;4.980;2022-09-17T00:58:09;5.18;;;2.10;;
10383;SDS011;5238;43.508;4.980;2022-09-17T01:00:43;3.60;;;2.08;;
10383;SDS011;5238;43.508;4.980;2022-09-17T01:03:15;3.05;;;2.08;;
10383;SDS011;5238;43.508;4.980;2022-09-17T01:05:48;4.63;;;2.15;;
10383;SDS011;5238;43.508;4.980;2022-09-17T01:08:33;3.65;;;2.00;;
10383;SDS011;5238;43.508;4.980;2022-09-17T01:11:20;2.78;;;2.00;;
10383;SDS011;5238;43.508;4.980;2022-09-17T01:14:01;4.22;;;2.30;;
10383;SDS011;5238;43.508;4.980;2022-09-17T01:16:42;2.90;;;2.10;;
10383;SDS011;5238;43.508;4.980;2022-09-17T01:19:31;3.60;;;1.98;;
10383;SDS011;5238;43.508;4.980;2022-09-17T01:22:21;2.05;;;1.70;;
10383;SDS011;5238;43.508;4.980;2022-09-17T01:24:59;3.05;;;2.10;;
10383;SDS011;5238;43.508;4.980;2022-09-17T01:28:02;3.78;;;2.08;;
10383;SDS011;5238;43.508;4.980;2022-09-17T01:31:10;2.83;;;1.77;;
10383;SDS011;5238;43.508;4.980;2022-09-17T01:33:52;2.10;;;1.90;;
10383;SDS011;5238;43.508;4.980;2022-09-17T01:36:31;4.30;;;1.77;;
10383;SDS011;5238;43.508;4.980;2022-09-17T01:39:09;3.40;;;2.10;;
10383;SDS011;5238;43.508;4.980;2022-09-17T01:41:44;3.30;;;1.67;;
10383;SDS011;5238;43.508;4.980;2022-09-17T01:44:19;2.80;;;2.00;;
10383;SDS011;5238;43.508;4.980;2022-09-17T01:46:52;2.95;;;1.85;;
10383;SDS011;5238;43.508;4.980;2022-09-17T01:49:24;2.13;;;1.70;;
10383;SDS011;5238;43.508;4.980;2022-09-17T01:51:59;2.88;;;1.50;;
10383;SDS011;5238;43.508;4.980;2022-09-17T01:54:29;2.42;;;1.60;;
10383;SDS011;5238;43.508;4.980;2022-09-17T01:57:03;3.17;;;1.50;;
10383;SDS011;5238;43.508;4.980;2022-09-17T01:59:35;3.95;;;1.83;;
10383;SDS011;5238;43.508;4.980;2022-09-17T02:02:09;2.67;;;1.75;;
10383;SDS011;5238;43.508;4.980;2022-09-17T02:04:42;1.60;;;1.40;;
10383;SDS011;5238;43.508;4.980;2022-09-17T02:07:16;3.95;;;1.60;;
10383;SDS011;5238;43.508;4.980;2022-09-17T02:09:46;4.78;;;1.50;;
10383;SDS011;5238;43.508;4.980;2022-09-17T02:12:19;4.43;;;1.58;;
10383;SDS011;5238;43.508;4.980;2022-09-17T02:14:52;2.28;;;1.40;;
10383;SDS011;5238;43.508;4.980;2022-09-17T02:17:31;2.33;;;1.50;;
10383;SDS011;5238;43.508;4.980;2022-09-17T02:20:06;2.75;;;1.73;;
10383;SDS011;5238;43.508;4.980;2022-09-17T02:22:36;2.75;;;1.60;;
10383;SDS011;5238;43.508;4.980;2022-09-17T02:25:09;2.88;;;1.40;;
10383;SDS011;5238;43.508;4.980;2022-09-17T02:28:07;4.57;;;1.67;;
10383;SDS011;5238;43.508;4.980;2022-09-17T02:30:42;2.45;;;1.50;;
10383;SDS011;5238;43.508;4.980;2022-09-17T02:33:12;3.38;;;1.40;;
10383;SDS011;5238;43.508;4.980;2022-09-17T02:35:41;2.95;;;1.45;;
10383;SDS011;5238;43.508;4.980;2022-09-17T02:38:10;4.00;;;1.50;;
10383;SDS011;5238;43.508;4.980;2022-09-17T02:40:40;3.97;;;1.60;;
10383;SDS011;5238;43.508;4.980;2022-09-17T02:43:17;3.83;;;1.50;;
10383;SDS011;5238;43.508;4.980;2022-09-17T02:45:55;3.38;;;1.50;;
10383;SDS011;5238;43.508;4.980;2022-09-17T02:51:31;3.25;;;1.63;;
10383;SDS011;5238;43.508;4.980;2022-09-17T02:54:11;2.22;;;1.30;;
10383;SDS011;5238;43.508;4.980;2022-09-17T02:56:57;2.15;;;1.02;;
10383;SDS011;5238;43.508;4.980;2022-09-17T02:59:35;1.60;;;1.50;;
10383;SDS011;5238;43.508;4.980;2022-09-17T03:02:11;5.18;;;1.45;;
10383;SDS011;5238;43.508;4.980;2022-09-17T03:04:56;3.13;;;1.40;;
10383;SDS011;5238;43.508;4.980;2022-09-17T03:07:28;2.15;;;1.48;;
10383;SDS011;5238;43.508;4.980;2022-09-17T03:09:59;2.60;;;1.38;;
10383;SDS011;5238;43.508;4.980;2022-09-17T03:12:40;2.90;;;1.40;;
10383;SDS011;5238;43.508;4.980;2022-09-17T03:15:09;1.63;;;1.30;;
10383;SDS011;5238;43.508;4.980;2022-09-17T03:17:38;3.88;;;1.58;;
10383;SDS011;5238;43.508;4.980;2022-09-17T03:20:10;3.40;;;1.40;;
10383;SDS011;5238;43.508;4.980;2022-09-17T03:22:40;2.53;;;1.40;;
10383;SDS011;5238;43.508;4.980;2022-09-17T03:25:07;2.70;;;1.45;;
10383;SDS011;5238;43.508;4.980;2022-09-17T03:27:38;2.15;;;1.20;;
10383;SDS011;5238;43.508;4.980;2022-09-17T03:30:05;1.98;;;1.67;;
10383;SDS011;5238;43.508;4.980;2022-09-17T03:32:37;2.15;;;1.48;;
10383;SDS011;5238;43.508;4.980;2022-09-17T03:35:04;2.20;;;1.30;;
10383;SDS011;5238;43.508;4.980;2022-09-17T03:37:33;1.92;;;1.17;;
10383;SDS011;5238;43.508;4.980;2022-09-17T03:40:05;2.47;;;1.23;;
10383;SDS011;5238;43.508;4.980;2022-09-17T03:42:33;4.22;;;1.45;;
10383;SDS011;5238;43.508;4.980;2022-09-17T03:45:09;2.45;;;1.48;;
10383;SDS011;5238;43.508;4.980;2022-09-17T03:47:36;3.67;;;1.40;;
10383;SDS011;5238;43.508;4.980;2022-09-17T03:50:06;3.38;;;1.27;;
10383;SDS011;5238;43.508;4.980;2022-09-17T03:52:45;2.22;;;1.00;;
10383;SDS011;5238;43.508;4.980;2022-09-17T03:55:19;1.45;;;1.30;;
10383;SDS011;5238;43.508;4.980;2022-09-17T03:57:47;1.45;;;1.30;;
10383;SDS011;5238;43.508;4.980;2022-09-17T04:00:15;2.42;;;1.30;;
10383;SDS011;5238;43.508;4.980;2022-09-17T04:02:42;2.53;;;1.70;;
10383;SDS011;5238;43.508;4.980;2022-09-17T04:05:09;2.10;;;1.27;;
10383;SDS011;5238;43.508;4.980;2022-09-17T04:07:39;3.65;;;1.30;;
10383;SDS011;5238;43.508;4.980;2022-09-17T04:10:09;2.72;;;1.00;;
10383;SDS011;5238;43.508;4.980;2022-09-17T04:12:38;2.85;;;1.10;;
10383;SDS011;5238;43.508;4.980;2022-09-17T04:15:06;2.65;;;1.30;;
10383;SDS011;5238;43.508;4.980;2022-09-17T04:17:34;4.28;;;1.40;;
10383;SDS011;5238;43.508;4.980;2022-09-17T04:20:01;2.25;;;1.55;;
10383;SDS011;5238;43.508;4.980;2022-09-17T04:25:14;2.92;;;1.23;;
10383;SDS011;5238;43.508;4.980;2022-09-17T04:27:44;4.07;;;1.30;;
10383;SDS011;5238;43.508;4.980;2022-09-17T04:30:13;3.97;;;1.30;;
10383;SDS011;5238;43.508;4.980;2022-09-17T04:32:41;2.60;;;1.00;;
10383;SDS011;5238;43.508;4.980;2022-09-17T04:35:12;1.38;;;1.20;;
10383;SDS011;5238;43.508;4.980;2022-09-17T04:37:54;6.68;;;1.55;;
10383;SDS011;5238;43.508;4.980;2022-09-17T04:40:30;2.30;;;1.27;;
10383;SDS011;5238;43.508;4.980;2022-09-17T04:42:58;3.20;;;1.35;;
10383;SDS011;5238;43.508;4.980;2022-09-17T04:45:27;3.85;;;1.23;;
10383;SDS011;5238;43.508;4.980;2022-09-17T04:47:54;3.88;;;1.45;;
10383;SDS011;5238;43.508;4.980;2022-09-17T04:50:21;3.22;;;1.38;;
10383;SDS011;5238;43.508;4.980;2022-09-17T04:52:49;2.95;;;1.30;;
10383;SDS011;5238;43.508;4.980;2022-09-17T04:55:17;4.18;;;1.30;;
10383;SDS011;5238;43.508;4.980;2022-09-17T04:57:45;2.00;;;1.35;;
10383;SDS011;5238;43.508;4.980;2022-09-17T05:00:13;4.30;;;1.48;;
10383;SDS011;5238;43.508;4.980;2022-09-17T05:02:42;2.63;;;1.25;;
10383;SDS011;5238;43.508;4.980;2022-09-17T05:05:10;2.05;;;1.10;;
10383;SDS011;5238;43.508;4.980;2022-09-17T05:07:38;3.25;;;1.35;;
10383;SDS011;5238;43.508;4.980;2022-09-17T05:10:06;3.35;;;1.20;;
10383;SDS011;5238;43.508;4.980;2022-09-17T05:12:35;5.63;;;1.20;;
10383;SDS011;5238;43.508;4.980;2022-09-17T05:15:03;3.22;;;1.38;;
10383;SDS011;5238;43.508;4.980;2022-09-17T05:17:33;5.43;;;1.48;;
10383;SDS011;5238;43.508;4.980;2022-09-17T05:20:08;2.10;;;1.20;;
10383;SDS011;5238;43.508;4.980;2022-09-17T05:22:50;2.97;;;1.40;;
10383;SDS011;5238;43.508;4.980;2022-09-17T05:25:19;1.83;;;1.50;;
10383;SDS011;5238;43.508;4.980;2022-09-17T05:27:58;4.32;;;1.60;;
10383;SDS011;5238;43.508;4.980;2022-09-17T05:30:28;4.97;;;1.25;;
10383;SDS011;5238;43.508;4.980;2022-09-17T05:32:59;2.40;;;1.10;;
10383;SDS011;5238;43.508;4.980;2022-09-17T05:35:31;2.25;;;0.90;;
10383;SDS011;5238;43.508;4.980;2022-09-17T05:38:07;2.60;;;1.10;;
10383;SDS011;5238;43.508;4.980;2022-09-17T05:40:36;3.78;;;1.35;;
10383;SDS011;5238;43.508;4.980;2022-09-17T05:43:18;2.45;;;1.10;;
10383;SDS011;5238;43.508;4.980;2022-09-17T05:45:48;1.25;;;1.15;;
10383;SDS011;5238;43.508;4.980;2022-09-17T05:48:18;2.55;;;1.02;;
10383;SDS011;5238;43.508;4.980;2022-09-17T05:50:47;3.65;;;1.23;;
10383;SDS011;5238;43.508;4.980;2022-09-17T05:53:19;2.63;;;1.23;;
10383;SDS011;5238;43.508;4.980;2022-09-17T05:55:50;2.15;;;1.10;;
10383;SDS011;5238;43.508;4.980;2022-09-17T05:58:20;3.20;;;1.25;;
10383;SDS011;5238;43.508;4.980;2022-09-17T06:00:54;2.15;;;1.15;;
10383;SDS011;5238;43.508;4.980;2022-09-17T06:03:25;1.92;;;1.08;;
10383;SDS011;5238;43.508;4.980;2022-09-17T06:05:53;1.33;;;1.00;;
10383;SDS011;5238;43.508;4.980;2022-09-17T06:08:22;2.75;;;1.00;;
10383;SDS011;5238;43.508;4.980;2022-09-17T06:10:50;2.28;;;1.10;;
10383;SDS011;5238;43.508;4.980;2022-09-17T06:13:17;3.10;;;1.05;;
10383;SDS011;5238;43.508;4.980;2022-09-17T06:15:50;5.35;;;1.30;;
10383;SDS011;5238;43.508;4.980;2022-09-17T06:18:26;3.05;;;0.98;;
10383;SDS011;5238;43.508;4.980;2022-09-17T06:21:00;1.73;;;1.05;;
10383;SDS011;5238;43.508;4.980;2022-09-17T06:23:30;6.50;;;0.98;;
10383;SDS011;5238;43.508;4.980;2022-09-17T06:25:59;4.10;;;0.90;;
10383;SDS011;5238;43.508;4.980;2022-09-17T06:28:28;2.60;;;0.90;;
10383;SDS011;5238;43.508;4.980;2022-09-17T06:30:58;1.90;;;0.90;;
10383;SDS011;5238;43.508;4.980;2022-09-17T06:33:26;2.25;;;0.88;;
10383;SDS011;5238;43.508;4.980;2022-09-17T06:35:57;2.55;;;1.10;;
10383;SDS011;5238;43.508;4.980;2022-09-17T06:38:29;4.28;;;0.98;;
10383;SDS011;5238;43.508;4.980;2022-09-17T06:40:57;1.67;;;0.90;;
10383;SDS011;5238;43.508;4.980;2022-09-17T06:43:29;1.33;;;0.90;;
10383;SDS011;5238;43.508;4.980;2022-09-17T06:45:57;1.35;;;0.90;;
10383;SDS011;5238;43.508;4.980;2022-09-17T06:48:27;2.95;;;1.10;;
10383;SDS011;5238;43.508;4.980;2022-09-17T06:51:00;0.80;;;0.80;;
10383;SDS011;5238;43.508;4.980;2022-09-17T06:53:42;1.33;;;0.88;;
10383;SDS011;5238;43.508;4.980;2022-09-17T06:56:13;1.42;;;0.88;;
10383;SDS011;5238;43.508;4.980;2022-09-17T06:58:45;2.80;;;1.00;;
10383;SDS011;5238;43.508;4.980;2022-09-17T07:01:20;3.58;;;0.90;;
10383;SDS011;5238;43.508;4.980;2022-09-17T07:03:47;6.22;;;1.20;;
10383;SDS011;5238;43.508;4.980;2022-09-17T07:06:15;1.27;;;0.80;;
10383;SDS011;5238;43.508;4.980;2022-09-17T07:08:45;2.45;;;1.00;;
10383;SDS011;5238;43.508;4.980;2022-09-17T07:11:13;1.00;;;0.80;;
10383;SDS011;5238;43.508;4.980;2022-09-17T07:13:40;4.05;;;0.80;;
10383;SDS011;5238;43.508;4.980;2022-09-17T07:16:12;3.40;;;1.10;;
10383;SDS011;5238;43.508;4.980;2022-09-17T07:18:39;2.75;;;0.90;;
10383;SDS011;5238;43.508;4.980;2022-09-17T07:21:15;3.25;;;1.00;;
10383;SDS011;5238;43.508;4.980;2022-09-17T07:23:43;5.68;;;1.00;;
10383;SDS011;5238;43.508;4.980;2022-09-17T07:26:11;2.00;;;0.80;;
10383;SDS011;5238;43.508;4.980;2022-09-17T07:28:40;1.58;;;0.80;;
10383;SDS011;5238;43.508;4.980;2022-09-17T07:31:09;0.90;;;0.80;;
10383;SDS011;5238;43.508;4.980;2022-09-17T07:33:37;1.70;;;0.80;;
10383;SDS011;5238;43.508;4.980;2022-09-17T07:36:09;10.10;;;1.10;;
10383;SDS011;5238;43.508;4.980;2022-09-17T07:38:41;8.80;;;2.03;;
10383;SDS011;5238;43.508;4.980;2022-09-17T07:41:22;5.88;;;1.10;;
10383;SDS011;5238;43.508;4.980;2022-09-17T07:44:03;5.50;;;1.13;;
10383;SDS011;5238;43.508;4.980;2022-09-17T07:46:40;7.40;;;1.30;;
10383;SDS011;5238;43.508;4.980;2022-09-17T07:49:10;2.90;;;1.10;;
10383;SDS011;5238;43.508;4.980;2022-09-17T07:51:52;1.35;;;0.80;;
10383;SDS011;5238;43.508;4.980;2022-09-17T07:54:37;1.52;;;0.90;;
10383;SDS011;5238;43.508;4.980;2022-09-17T07:57:15;5.20;;;1.27;;
10383;SDS011;5238;43.508;4.980;2022-09-17T07:59:42;5.85;;;1.02;;
10383;SDS011;5238;43.508;4.980;2022-09-17T08:02:24;2.35;;;0.93;;
10383;SDS011;5238;43.508;4.980;2022-09-17T08:04:56;2.00;;;0.85;;
10383;SDS011;5238;43.508;4.980;2022-09-17T08:07:34;5.50;;;1.25;;
10383;SDS011;5238;43.508;4.980;2022-09-17T08:10:01;2.13;;;0.95;;
10383;SDS011;5238;43.508;4.980;2022-09-17T08:12:29;8.20;;;1.00;;
10383;SDS011;5238;43.508;4.980;2022-09-17T08:14:56;12.20;;;1.42;;
10383;SDS011;5238;43.508;4.980;2022-09-17T08:17:24;3.22;;;1.08;;
10383;SDS011;5238;43.508;4.980;2022-09-17T08:19:57;2.88;;;1.08;;
10383;SDS011;5238;43.508;4.980;2022-09-17T08:22:24;1.80;;;0.73;;
10383;SDS011;5238;43.508;4.980;2022-09-17T08:24:52;6.80;;;1.42;;
10383;SDS011;5238;43.508;4.980;2022-09-17T08:27:19;4.57;;;0.90;;
10383;SDS011;5238;43.508;4.980;2022-09-17T08:29:52;3.30;;;1.25;;
10383;SDS011;5238;43.508;4.980;2022-09-17T08:32:19;3.58;;;0.90;;
10383;SDS011;5238;43.508;4.980;2022-09-17T08:34:48;3.38;;;0.80;;
10383;SDS011;5238;43.508;4.980;2022-09-17T08:37:15;5.68;;;0.93;;
10383;SDS011;5238;43.508;4.980;2022-09-17T08:39:42;9.55;;;1.33;;
10383;SDS011;5238;43.508;4.980;2022-09-17T08:42:11;2.33;;;1.05;;
10383;SDS011;5238;43.508;4.980;2022-09-17T08:44:46;5.25;;;0.90;;
10383;SDS011;5238;43.508;4.980;2022-09-17T08:47:19;5.05;;;0.85;;
10383;SDS011;5238;43.508;4.980;2022-09-17T08:49:53;2.30;;;0.90;;
10383;SDS011;5238;43.508;4.980;2022-09-17T08:55:29;2.97;;;1.05;;
10383;SDS011;5238;43.508;4.980;2022-09-17T08:58:21;5.93;;;1.00;;
10383;SDS011;5238;43.508;4.980;2022-09-17T09:04:15;3.97;;;0.95;;
10383;SDS011;5238;43.508;4.980;2022-09-17T09:07:05;1.75;;;0.60;;
10383;SDS011;5238;43.508;4.980;2022-09-17T09:09:36;2.40;;;0.80;;
10383;SDS011;5238;43.508;4.980;2022-09-17T09:14:59;3.53;;;0.90;;
10383;SDS011;5238;43.508;4.980;2022-09-17T09:17:32;1.60;;;0.90;;
10383;SDS011;5238;43.508;4.980;2022-09-17T09:20:11;2.88;;;0.95;;
10383;SDS011;5238;43.508;4.980;2022-09-17T09:22:47;2.53;;;0.80;;
10383;SDS011;5238;43.508;4.980;2022-09-17T09:25:20;6.30;;;0.90;;
10383;SDS011;5238;43.508;4.980;2022-09-17T09:27:52;3.03;;;0.90;;
10383;SDS011;5238;43.508;4.980;2022-09-17T09:30:29;3.78;;;1.00;;
10383;SDS011;5238;43.508;4.980;2022-09-17T09:33:09;2.35;;;0.70;;
10383;SDS011;5238;43.508;4.980;2022-09-17T09:35:40;4.18;;;0.93;;
10383;SDS011;5238;43.508;4.980;2022-09-17T09:38:14;3.38;;;0.90;;
10383;SDS011;5238;43.508;4.980;2022-09-17T09:40:50;1.23;;;0.75;;
10383;SDS011;5238;43.508;4.980;2022-09-17T09:43:21;5.35;;;1.25;;
10383;SDS011;5238;43.508;4.980;2022-09-17T09:48:56;1.70;;;0.93;;
10383;SDS011;5238;43.508;4.980;2022-09-17T09:51:34;1.90;;;0.80;;
10383;SDS011;5238;43.508;4.980;2022-09-17T09:54:18;2.45;;;0.70;;
10383;SDS011;5238;43.508;4.980;2022-09-17T09:56:55;1.42;;;0.70;;
10383;SDS011;5238;43.508;4.980;2022-09-17T09:59:24;0.93;;;0.70;;
10383;SDS011;5238;43.508;4.980;2022-09-17T10:01:51;3.78;;;0.85;;
10383;SDS011;5238;43.508;4.980;2022-09-17T10:04:20;4.97;;;0.95;;
10383;SDS011;5238;43.508;4.980;2022-09-17T10:07:07;2.67;;;0.90;;
10383;SDS011;5238;43.508;4.980;2022-09-17T10:10:08;2.88;;;0.75;;
10383;SDS011;5238;43.508;4.980;2022-09-17T10:13:04;0.77;;;0.63;;
10383;SDS011;5238;43.508;4.980;2022-09-17T10:15:32;3.60;;;0.80;;
10383;SDS011;5238;43.508;4.980;2022-09-17T10:18:10;5.57;;;1.05;;
10383;SDS011;5238;43.508;4.980;2022-09-17T10:20:49;4.88;;;0.85;;
10383;SDS011;5238;43.508;4.980;2022-09-17T10:23:46;2.90;;;1.00;;
10383;SDS011;5238;43.508;4.980;2022-09-17T10:29:05;2.67;;;0.85;;
10383;SDS011;5238;43.508;4.980;2022-09-17T10:31:46;0.90;;;0.80;;
10383;SDS011;5238;43.508;4.980;2022-09-17T10:34:20;2.92;;;0.88;;
10383;SDS011;5238;43.508;4.980;2022-09-17T10:36:54;1.13;;;0.70;;
10383;SDS011;5238;43.508;4.980;2022-09-17T10:39:32;2.65;;;0.80;;
10383;SDS011;5238;43.508;4.980;2022-09-17T10:42:05;2.40;;;0.98;;
10383;SDS011;5238;43.508;4.980;2022-09-17T10:44:49;3.65;;;0.80;;
10383;SDS011;5238;43.508;4.980;2022-09-17T10:47:18;3.35;;;0.80;;
10383;SDS011;5238;43.508;4.980;2022-09-17T10:49:52;0.90;;;0.50;;
10383;SDS011;5238;43.508;4.980;2022-09-17T10:52:24;6.38;;;0.80;;
10383;SDS011;5238;43.508;4.980;2022-09-17T10:55:09;1.92;;;0.65;;
10383;SDS011;5238;43.508;4.980;2022-09-17T10:58:10;0.77;;;0.60;;
10383;SDS011;5238;43.508;4.980;2022-09-17T11:00:51;2.58;;;0.77;;
10383;SDS011;5238;43.508;4.980;2022-09-17T11:03:35;1.95;;;0.70;;
10383;SDS011;5238;43.508;4.980;2022-09-17T11:06:40;1.00;;;0.65;;
10383;SDS011;5238;43.508;4.980;2022-09-17T11:09:28;3.00;;;0.90;;
10383;SDS011;5238;43.508;4.980;2022-09-17T11:12:11;1.38;;;0.70;;
10383;SDS011;5238;43.508;4.980;2022-09-17T11:14:50;2.67;;;0.75;;
10383;SDS011;5238;43.508;4.980;2022-09-17T11:17:38;3.80;;;0.70;;
10383;SDS011;5238;43.508;4.980;2022-09-17T11:20:29;0.90;;;0.65;;
10383;SDS011;5238;43.508;4.980;2022-09-17T11:23:14;2.92;;;0.60;;
10383;SDS011;5238;43.508;4.980;2022-09-17T11:25:59;1.40;;;0.50;;
10383;SDS011;5238;43.508;4.980;2022-09-17T11:28:38;1.08;;;0.60;;
10383;SDS011;5238;43.508;4.980;2022-09-17T11:31:24;3.47;;;0.70;;
10383;SDS011;5238;43.508;4.980;2022-09-17T11:37:05;5.05;;;0.70;;
10383;SDS011;5238;43.508;4.980;2022-09-17T11:39:44;3.67;;;0.88;;
10383;SDS011;5238;43.508;4.980;2022-09-17T11:42:18;3.60;;;0.50;;
10383;SDS011;5238;43.508;4.980;2022-09-17T11:44:50;2.10;;;0.65;;
10383;SDS011;5238;43.508;4.980;2022-09-17T11:47:22;1.90;;;0.68;;
10383;SDS011;5238;43.508;4.980;2022-09-17T11:49:56;2.72;;;0.50;;
10383;SDS011;5238;43.508;4.980;2022-09-17T11:52:30;1.38;;;0.70;;
10383;SDS011;5238;43.508;4.980;2022-09-17T11:55:04;1.90;;;0.80;;
10383;SDS011;5238;43.508;4.980;2022-09-17T11:57:44;1.10;;;0.57;;
10383;SDS011;5238;43.508;4.980;2022-09-17T12:00:20;1.15;;;0.60;;
10383;SDS011;5238;43.508;4.980;2022-09-17T12:02:52;1.15;;;0.60;;
10383;SDS011;5238;43.508;4.980;2022-09-17T12:05:33;4.07;;;0.60;;
10383;SDS011;5238;43.508;4.980;2022-09-17T12:08:08;1.35;;;0.60;;
10383;SDS011;5238;43.508;4.980;2022-09-17T12:10:41;0.85;;;0.70;;
10383;SDS011;5238;43.508;4.980;2022-09-17T12:13:15;5.32;;;0.90;;
10383;SDS011;5238;43.508;4.980;2022-09-17T12:16:09;1.27;;;0.65;;
10383;SDS011;5238;43.508;4.980;2022-09-17T12:18:44;2.65;;;0.88;;
10383;SDS011;5238;43.508;4.980;2022-09-17T12:21:18;1.58;;;0.50;;
10383;SDS011;5238;43.508;4.980;2022-09-17T12:23:54;1.48;;;0.57;;
10383;SDS011;5238;43.508;4.980;2022-09-17T12:26:31;4.78;;;0.60;;
10383;SDS011;5238;43.508;4.980;2022-09-17T12:29:25;3.88;;;1.50;;
10383;SDS011;5238;43.508;4.980;2022-09-17T12:32:03;1.02;;;0.60;;
10383;SDS011;5238;43.508;4.980;2022-09-17T12:34:53;2.28;;;0.50;;
10383;SDS011;5238;43.508;4.980;2022-09-17T12:37:31;2.65;;;0.60;;
10383;SDS011;5238;43.508;4.980;2022-09-17T12:40:13;0.93;;;0.65;;
10383;SDS011;5238;43.508;4.980;2022-09-17T12:42:53;2.35;;;0.85;;
10383;SDS011;5238;43.508;4.980;2022-09-17T12:45:41;0.55;;;0.55;;
10383;SDS011;5238;43.508;4.980;2022-09-17T12:48:25;3.95;;;0.70;;
10383;SDS011;5238;43.508;4.980;2022-09-17T12:51:38;4.80;;;0.90;;
10383;SDS011;5238;43.508;4.980;2022-09-17T12:54:24;2.13;;;0.50;;
10383;SDS011;5238;43.508;4.980;2022-09-17T12:57:21;2.65;;;0.60;;
10383;SDS011;5238;43.508;4.980;2022-09-17T13:00:04;3.10;;;0.60;;
10383;SDS011;5238;43.508;4.980;2022-09-17T13:02:40;2.67;;;0.90;;
10383;SDS011;5238;43.508;4.980;2022-09-17T13:21:42;6.03;;;5.72;;
10383;SDS011;5238;43.508;4.980;2022-09-17T13:24:41;2.97;;;2.78;;
10383;SDS011;5238;43.508;4.980;2022-09-17T13:27:20;8.20;;;7.72;;
10383;SDS011;5238;43.508;4.980;2022-09-17T13:37:02;7.07;;;6.32;;
10383;SDS011;5238;43.508;4.980;2022-09-17T13:43:15;2.60;;;2.10;;
10383;SDS011;5238;43.508;4.980;2022-09-17T13:49:04;3.22;;;2.10;;
10383;SDS011;5238;43.508;4.980;2022-09-17T13:52:02;4.00;;;3.20;;
10383;SDS011;5238;43.508;4.980;2022-09-17T13:54:53;5.53;;;5.20;;
10383;SDS011;5238;43.508;4.980;2022-09-17T13:57:21;3.33;;;1.77;;
10383;SDS011;5238;43.508;4.980;2022-09-17T14:06:50;4.72;;;2.85;;
10383;SDS011;5238;43.508;4.980;2022-09-17T14:19:43;5.10;;;2.73;;
10383;SDS011;5238;43.508;4.980;2022-09-17T14:22:19;3.85;;;1.95;;
10383;SDS011;5238;43.508;4.980;2022-09-17T14:24:55;5.30;;;4.00;;
10383;SDS011;5238;43.508;4.980;2022-09-17T14:30:32;3.17;;;2.88;;
10383;SDS011;5238;43.508;4.980;2022-09-17T14:33:07;4.70;;;2.45;;
10383;SDS011;5238;43.508;4.980;2022-09-17T14:35:56;2.63;;;1.45;;
10383;SDS011;5238;43.508;4.980;2022-09-17T14:38:45;5.70;;;5.25;;
10383;SDS011;5238;43.508;4.980;2022-09-17T14:41:27;6.47;;;3.58;;
10383;SDS011;5238;43.508;4.980;2022-09-17T14:44:36;4.38;;;4.05;;
10383;SDS011;5238;43.508;4.980;2022-09-17T14:47:40;2.85;;;1.63;;
10383;SDS011;5238;43.508;4.980;2022-09-17T14:50:21;2.95;;;2.65;;
10383;SDS011;5238;43.508;4.980;2022-09-17T14:52:57;2.85;;;2.58;;
10383;SDS011;5238;43.508;4.980;2022-09-17T14:55:29;3.20;;;1.50;;
10383;SDS011;5238;43.508;4.980;2022-09-17T14:57:57;2.28;;;2.15;;
10383;SDS011;5238;43.508;4.980;2022-09-17T15:00:29;3.42;;;3.10;;
10383;SDS011;5238;43.508;4.980;2022-09-17T15:03:00;2.53;;;1.95;;
10383;SDS011;5238;43.508;4.980;2022-09-17T15:05:28;1.88;;;1.77;;
10383;SDS011;5238;43.508;4.980;2022-09-17T15:08:17;5.28;;;1.70;;
10383;SDS011;5238;43.508;4.980;2022-09-17T15:11:09;1.88;;;1.75;;
10383;SDS011;5238;43.508;4.980;2022-09-17T15:14:13;9.02;;;8.45;;
10383;SDS011;5238;43.508;4.980;2022-09-17T15:16:55;4.07;;;3.88;;
10383;SDS011;5238;43.508;4.980;2022-09-17T15:19:30;8.20;;;7.72;;
10383;SDS011;5238;43.508;4.980;2022-09-17T15:24:47;3.38;;;3.15;;
10383;SDS011;5238;43.508;4.980;2022-09-17T15:27:20;2.70;;;2.53;;
10383;SDS011;5238;43.508;4.980;2022-09-17T15:29:55;2.47;;;1.90;;
10383;SDS011;5238;43.508;4.980;2022-09-17T15:32:33;3.30;;;2.70;;
10383;SDS011;5238;43.508;4.980;2022-09-17T15:37:58;2.42;;;2.30;;
10383;SDS011;5238;43.508;4.980;2022-09-17T15:40:36;2.28;;;2.05;;
10383;SDS011;5238;43.508;4.980;2022-09-17T15:43:20;4.10;;;1.75;;
10383;SDS011;5238;43.508;4.980;2022-09-17T15:45:54;2.67;;;2.45;;
10383;SDS011;5238;43.508;4.980;2022-09-17T15:48:35;2.95;;;2.67;;
10383;SDS011;5238;43.508;4.980;2022-09-17T15:51:04;2.90;;;2.70;;
10383;SDS011;5238;43.508;4.980;2022-09-17T15:56:17;2.83;;;2.60;;
10383;SDS011;5238;43.508;4.980;2022-09-17T16:01:54;3.47;;;3.20;;
10383;SDS011;5238;43.508;4.980;2022-09-17T16:08:32;9.85;;;3.90;;
10383;SDS011;5238;43.508;4.980;2022-09-17T16:11:07;7.93;;;7.40;;
10383;SDS011;5238;43.508;4.980;2022-09-17T16:13:36;3.72;;;2.58;;
10383;SDS011;5238;43.508;4.980;2022-09-17T16:16:21;2.65;;;1.33;;
10383;SDS011;5238;43.508;4.980;2022-09-17T16:18:51;1.52;;;1.42;;
10383;SDS011;5238;43.508;4.980;2022-09-17T16:21:19;2.00;;;1.45;;
10383;SDS011;5238;43.508;4.980;2022-09-17T16:23:46;3.22;;;2.92;;
10383;SDS011;5238;43.508;4.980;2022-09-17T16:26:15;3.22;;;3.03;;
10383;SDS011;5238;43.508;4.980;2022-09-17T16:29:02;3.42;;;1.60;;
10383;SDS011;5238;43.508;4.980;2022-09-17T16:34:55;2.75;;;2.50;;
10383;SDS011;5238;43.508;4.980;2022-09-17T16:47:21;4.30;;;4.05;;
10383;SDS011;5238;43.508;4.980;2022-09-17T16:50:08;3.25;;;1.45;;
10383;SDS011;5238;43.508;4.980;2022-09-17T16:55:51;3.38;;;3.03;;
10383;SDS011;5238;43.508;4.980;2022-09-17T16:58:21;3.67;;;3.10;;
10383;SDS011;5238;43.508;4.980;2022-09-17T17:15:01;8.57;;;8.05;;
10383;SDS011;5238;43.508;4.980;2022-09-17T17:35:17;4.75;;;4.45;;
10383;SDS011;5238;43.508;4.980;2022-09-17T17:44:40;2.35;;;1.98;;
10383;SDS011;5238;43.508;4.980;2022-09-17T18:31:49;1.65;;;0.57;;
10383;SDS011;5238;43.508;4.980;2022-09-17T18:34:17;1.40;;;0.70;;
10383;SDS011;5238;43.508;4.980;2022-09-17T18:36:44;2.10;;;0.77;;
10383;SDS011;5238;43.508;4.980;2022-09-17T18:39:17;1.25;;;0.60;;
10383;SDS011;5238;43.508;4.980;2022-09-17T18:41:45;3.30;;;0.40;;
10383;SDS011;5238;43.508;4.980;2022-09-17T18:44:26;2.83;;;0.60;;
10383;SDS011;5238;43.508;4.980;2022-09-17T18:46:55;0.90;;;0.85;;
10383;SDS011;5238;43.508;4.980;2022-09-17T18:49:22;1.30;;;0.70;;
10383;SDS011;5238;43.508;4.980;2022-09-17T18:51:49;3.08;;;0.65;;
10383;SDS011;5238;43.508;4.980;2022-09-17T18:54:15;0.65;;;0.35;;
10383;SDS011;5238;43.508;4.980;2022-09-17T18:56:43;0.75;;;0.50;;